sensor_id;sensor_type;location;lat;lon;timestamp;temperature;humidity
58993;DHT22;44782;0.000;0.000;2024-02-16T00:01:01;19.40;57.70
58993;DHT22;44782;0.000;0.000;2024-02-16T00:03:17;19.40;57.60
58993;DHT22;44782;0.000;0.000;2024-02-16T00:05:32;19.40;57.50
58993;DHT22;44782;0.000;0.000;2024-02-16T00:07:48;19.40;57.50
58993;DHT22;44782;0.000;0.000;2024-02-16T00:10:07;19.40;57.50
58993;DHT22;44782;0.000;0.000;2024-02-16T00:12:24;19.40;57.50
58993;DHT22;44782;0.000;0.000;2024-02-16T00:14:40;19.40;57.50
58993;DHT22;44782;0.000;0.000;2024-02-16T00:16:55;19.30;57.50
58993;DHT22;44782;0.000;0.000;2024-02-16T00:19:11;19.30;57.40
58993;DHT22;44782;0.000;0.000;2024-02-16T00:21:27;19.30;57.50
58993;DHT22;44782;0.000;0.000;2024-02-16T00:23:43;19.30;57.50
58993;DHT22;44782;0.000;0.000;2024-02-16T00:26:01;19.30;57.50
58993;DHT22;44782;0.000;0.000;2024-02-16T00:28:17;19.30;57.40
58993;DHT22;44782;0.000;0.000;2024-02-16T00:30:32;19.30;57.50
58993;DHT22;44782;0.000;0.000;2024-02-16T00:32:48;19.30;57.50
58993;DHT22;44782;0.000;0.000;2024-02-16T00:35:04;19.30;57.40
58993;DHT22;44782;0.000;0.000;2024-02-16T00:37:20;19.30;57.50
58993;DHT22;44782;0.000;0.000;2024-02-16T00:39:36;19.30;57.50
58993;DHT22;44782;0.000;0.000;2024-02-16T00:41:52;19.30;57.50
58993;DHT22;44782;0.000;0.000;2024-02-16T00:44:08;19.20;57.30
58993;DHT22;44782;0.000;0.000;2024-02-16T00:46:23;19.20;57.40
58993;DHT22;44782;0.000;0.000;2024-02-16T00:48:39;19.20;57.40
58993;DHT22;44782;0.000;0.000;2024-02-16T00:50:55;19.20;57.40
58993;DHT22;44782;0.000;0.000;2024-02-16T00:53:11;19.20;57.30
58993;DHT22;44782;0.000;0.000;2024-02-16T00:55:27;19.20;57.30
58993;DHT22;44782;0.000;0.000;2024-02-16T00:57:42;19.20;57.30
58993;DHT22;44782;0.000;0.000;2024-02-16T00:59:58;19.20;57.40
58993;DHT22;44782;0.000;0.000;2024-02-16T01:02:14;19.20;57.40
58993;DHT22;44782;0.000;0.000;2024-02-16T01:04:32;19.20;57.40
58993;DHT22;44782;0.000;0.000;2024-02-16T01:06:48;19.20;57.40
58993;DHT22;44782;0.000;0.000;2024-02-16T01:09:03;19.20;57.40
58993;DHT22;44782;0.000;0.000;2024-02-16T01:11:19;19.10;57.40
58993;DHT22;44782;0.000;0.000;2024-02-16T01:13:35;19.10;57.30
58993;DHT22;44782;0.000;0.000;2024-02-16T01:15:50;19.10;57.40
58993;DHT22;44782;0.000;0.000;2024-02-16T01:18:06;19.10;57.40
58993;DHT22;44782;0.000;0.000;2024-02-16T01:20:22;19.10;57.50
58993;DHT22;44782;0.000;0.000;2024-02-16T01:22:38;19.10;57.40
58993;DHT22;44782;0.000;0.000;2024-02-16T01:24:54;19.10;57.40
58993;DHT22;44782;0.000;0.000;2024-02-16T01:27:10;19.10;57.30
58993;DHT22;44782;0.000;0.000;2024-02-16T01:29:26;19.10;57.30
58993;DHT22;44782;0.000;0.000;2024-02-16T01:31:42;19.10;57.30
58993;DHT22;44782;0.000;0.000;2024-02-16T01:33:57;19.10;57.30
58993;DHT22;44782;0.000;0.000;2024-02-16T01:36:13;19.10;57.30
58993;DHT22;44782;0.000;0.000;2024-02-16T01:38:29;19.10;57.30
58993;DHT22;44782;0.000;0.000;2024-02-16T01:40:45;19.10;57.30
58993;DHT22;44782;0.000;0.000;2024-02-16T01:43:00;19.10;57.20
58993;DHT22;44782;0.000;0.000;2024-02-16T01:45:16;19.10;57.30
58993;DHT22;44782;0.000;0.000;2024-02-16T01:47:32;19.10;57.20
58993;DHT22;44782;0.000;0.000;2024-02-16T01:49:48;19.10;57.20
58993;DHT22;44782;0.000;0.000;2024-02-16T01:52:04;19.00;57.10
58993;DHT22;44782;0.000;0.000;2024-02-16T01:54:20;19.00;57.10
58993;DHT22;44782;0.000;0.000;2024-02-16T01:56:36;19.00;57.20
58993;DHT22;44782;0.000;0.000;2024-02-16T01:58:52;19.00;57.20
58993;DHT22;44782;0.000;0.000;2024-02-16T02:01:08;19.00;57.20
58993;DHT22;44782;0.000;0.000;2024-02-16T02:03:23;19.00;57.10
58993;DHT22;44782;0.000;0.000;2024-02-16T02:05:46;19.00;57.20
58993;DHT22;44782;0.000;0.000;2024-02-16T02:10:22;19.00;57.20
58993;DHT22;44782;0.000;0.000;2024-02-16T02:12:38;19.00;57.20
58993;DHT22;44782;0.000;0.000;2024-02-16T02:14:54;19.00;57.20
58993;DHT22;44782;0.000;0.000;2024-02-16T02:17:10;19.00;57.20
58993;DHT22;44782;0.000;0.000;2024-02-16T02:19:26;19.00;57.20
58993;DHT22;44782;0.000;0.000;2024-02-16T02:21:42;19.00;57.20
58993;DHT22;44782;0.000;0.000;2024-02-16T02:23:57;19.00;57.30
58993;DHT22;44782;0.000;0.000;2024-02-16T02:26:16;18.90;57.20
58993;DHT22;44782;0.000;0.000;2024-02-16T02:28:34;18.90;57.10
58993;DHT22;44782;0.000;0.000;2024-02-16T02:30:50;18.90;57.20
58993;DHT22;44782;0.000;0.000;2024-02-16T02:33:06;18.90;57.30
58993;DHT22;44782;0.000;0.000;2024-02-16T02:35:21;18.90;57.20
58993;DHT22;44782;0.000;0.000;2024-02-16T02:37:38;18.90;57.20
58993;DHT22;44782;0.000;0.000;2024-02-16T02:39:54;18.90;57.20
58993;DHT22;44782;0.000;0.000;2024-02-16T02:42:09;18.90;57.20
58993;DHT22;44782;0.000;0.000;2024-02-16T02:44:25;18.90;57.30
58993;DHT22;44782;0.000;0.000;2024-02-16T02:46:41;18.90;57.30
58993;DHT22;44782;0.000;0.000;2024-02-16T02:48:57;18.90;57.20
58993;DHT22;44782;0.000;0.000;2024-02-16T02:51:13;18.90;57.30
58993;DHT22;44782;0.000;0.000;2024-02-16T02:53:28;18.90;57.20
58993;DHT22;44782;0.000;0.000;2024-02-16T02:55:45;18.90;57.30
58993;DHT22;44782;0.000;0.000;2024-02-16T02:58:03;18.90;57.30
58993;DHT22;44782;0.000;0.000;2024-02-16T03:00:19;18.90;57.20
58993;DHT22;44782;0.000;0.000;2024-02-16T03:02:35;18.90;57.30
58993;DHT22;44782;0.000;0.000;2024-02-16T03:04:52;18.90;57.30
58993;DHT22;44782;0.000;0.000;2024-02-16T03:07:08;18.90;57.30
58993;DHT22;44782;0.000;0.000;2024-02-16T03:09:24;18.90;57.40
58993;DHT22;44782;0.000;0.000;2024-02-16T03:11:40;18.90;57.40
58993;DHT22;44782;0.000;0.000;2024-02-16T03:13:56;18.90;57.40
58993;DHT22;44782;0.000;0.000;2024-02-16T03:16:12;18.90;57.40
58993;DHT22;44782;0.000;0.000;2024-02-16T03:18:31;18.90;57.40
58993;DHT22;44782;0.000;0.000;2024-02-16T03:20:47;18.90;57.30
58993;DHT22;44782;0.000;0.000;2024-02-16T03:23:05;18.80;57.40
58993;DHT22;44782;0.000;0.000;2024-02-16T03:25:21;18.80;57.40
58993;DHT22;44782;0.000;0.000;2024-02-16T03:27:37;18.80;57.40
58993;DHT22;44782;0.000;0.000;2024-02-16T03:29:53;18.80;57.40
58993;DHT22;44782;0.000;0.000;2024-02-16T03:32:10;18.80;57.50
58993;DHT22;44782;0.000;0.000;2024-02-16T03:34:26;18.80;57.40
58993;DHT22;44782;0.000;0.000;2024-02-16T03:36:42;18.80;57.50
58993;DHT22;44782;0.000;0.000;2024-02-16T03:38:58;18.80;57.50
58993;DHT22;44782;0.000;0.000;2024-02-16T03:41:19;18.80;57.50
58993;DHT22;44782;0.000;0.000;2024-02-16T03:43:35;18.80;57.40
58993;DHT22;44782;0.000;0.000;2024-02-16T03:45:51;18.80;57.50
58993;DHT22;44782;0.000;0.000;2024-02-16T03:48:07;18.80;57.50
58993;DHT22;44782;0.000;0.000;2024-02-16T03:50:23;18.80;57.50
58993;DHT22;44782;0.000;0.000;2024-02-16T03:52:38;18.80;57.50
58993;DHT22;44782;0.000;0.000;2024-02-16T03:54:54;18.80;57.50
58993;DHT22;44782;0.000;0.000;2024-02-16T03:57:10;18.80;57.50
58993;DHT22;44782;0.000;0.000;2024-02-16T03:59:27;18.80;57.50
58993;DHT22;44782;0.000;0.000;2024-02-16T04:01:43;18.80;57.50
58993;DHT22;44782;0.000;0.000;2024-02-16T04:03:58;18.80;57.50
58993;DHT22;44782;0.000;0.000;2024-02-16T04:06:14;18.80;57.50
58993;DHT22;44782;0.000;0.000;2024-02-16T04:08:29;18.80;57.50
58993;DHT22;44782;0.000;0.000;2024-02-16T04:10:46;18.80;57.60
58993;DHT22;44782;0.000;0.000;2024-02-16T04:13:03;18.80;57.50
58993;DHT22;44782;0.000;0.000;2024-02-16T04:15:21;18.80;57.50
58993;DHT22;44782;0.000;0.000;2024-02-16T04:17:37;18.80;57.50
58993;DHT22;44782;0.000;0.000;2024-02-16T04:19:53;18.70;57.50
58993;DHT22;44782;0.000;0.000;2024-02-16T04:22:08;18.70;57.60
58993;DHT22;44782;0.000;0.000;2024-02-16T04:24:24;18.70;57.50
58993;DHT22;44782;0.000;0.000;2024-02-16T04:26:40;18.70;57.50
58993;DHT22;44782;0.000;0.000;2024-02-16T04:28:56;18.70;57.60
58993;DHT22;44782;0.000;0.000;2024-02-16T04:31:11;18.70;57.60
58993;DHT22;44782;0.000;0.000;2024-02-16T04:33:27;18.70;57.60
58993;DHT22;44782;0.000;0.000;2024-02-16T04:35:43;18.70;57.50
58993;DHT22;44782;0.000;0.000;2024-02-16T04:38:02;18.70;57.60
58993;DHT22;44782;0.000;0.000;2024-02-16T04:40:17;18.70;57.60
58993;DHT22;44782;0.000;0.000;2024-02-16T04:42:33;18.70;57.60
58993;DHT22;44782;0.000;0.000;2024-02-16T04:44:49;18.70;57.60
58993;DHT22;44782;0.000;0.000;2024-02-16T04:47:05;18.70;57.60
58993;DHT22;44782;0.000;0.000;2024-02-16T04:49:21;18.70;57.60
58993;DHT22;44782;0.000;0.000;2024-02-16T04:51:37;18.70;57.50
58993;DHT22;44782;0.000;0.000;2024-02-16T04:53:54;18.70;57.60
58993;DHT22;44782;0.000;0.000;2024-02-16T04:56:10;18.70;57.50
58993;DHT22;44782;0.000;0.000;2024-02-16T04:58:26;18.70;57.50
58993;DHT22;44782;0.000;0.000;2024-02-16T05:00:42;18.70;57.50
58993;DHT22;44782;0.000;0.000;2024-02-16T05:02:58;18.70;57.50
58993;DHT22;44782;0.000;0.000;2024-02-16T05:05:14;18.80;57.50
58993;DHT22;44782;0.000;0.000;2024-02-16T05:07:30;18.80;57.50
58993;DHT22;44782;0.000;0.000;2024-02-16T05:09:51;18.80;57.60
58993;DHT22;44782;0.000;0.000;2024-02-16T05:12:11;18.80;57.60
58993;DHT22;44782;0.000;0.000;2024-02-16T05:14:27;18.80;57.60
58993;DHT22;44782;0.000;0.000;2024-02-16T05:16:46;18.90;57.60
58993;DHT22;44782;0.000;0.000;2024-02-16T05:19:02;18.90;57.70
58993;DHT22;44782;0.000;0.000;2024-02-16T05:21:18;18.90;57.70
58993;DHT22;44782;0.000;0.000;2024-02-16T05:23:34;18.90;57.60
58993;DHT22;44782;0.000;0.000;2024-02-16T05:25:50;18.90;57.70
58993;DHT22;44782;0.000;0.000;2024-02-16T05:28:05;18.90;57.70
58993;DHT22;44782;0.000;0.000;2024-02-16T05:30:21;19.00;57.70
58993;DHT22;44782;0.000;0.000;2024-02-16T05:32:37;19.00;57.70
58993;DHT22;44782;0.000;0.000;2024-02-16T05:34:53;19.00;57.80
58993;DHT22;44782;0.000;0.000;2024-02-16T05:37:08;19.00;57.80
58993;DHT22;44782;0.000;0.000;2024-02-16T05:39:24;19.00;57.80
58993;DHT22;44782;0.000;0.000;2024-02-16T05:41:42;19.10;57.80
58993;DHT22;44782;0.000;0.000;2024-02-16T05:43:57;19.10;57.80
58993;DHT22;44782;0.000;0.000;2024-02-16T05:46:14;19.10;57.80
58993;DHT22;44782;0.000;0.000;2024-02-16T05:48:30;19.20;57.80
58993;DHT22;44782;0.000;0.000;2024-02-16T05:50:46;19.10;57.80
58993;DHT22;44782;0.000;0.000;2024-02-16T05:53:02;19.20;57.80
58993;DHT22;44782;0.000;0.000;2024-02-16T05:55:18;19.20;57.80
58993;DHT22;44782;0.000;0.000;2024-02-16T05:57:35;19.20;57.80
58993;DHT22;44782;0.000;0.000;2024-02-16T05:59:51;19.20;57.70
58993;DHT22;44782;0.000;0.000;2024-02-16T06:02:07;19.20;57.80
58993;DHT22;44782;0.000;0.000;2024-02-16T06:04:24;19.20;57.80
58993;DHT22;44782;0.000;0.000;2024-02-16T06:06:40;19.20;57.80
58993;DHT22;44782;0.000;0.000;2024-02-16T06:08:55;19.20;57.90
58993;DHT22;44782;0.000;0.000;2024-02-16T06:11:11;19.30;58.20
58993;DHT22;44782;0.000;0.000;2024-02-16T06:13:27;19.30;58.20
58993;DHT22;44782;0.000;0.000;2024-02-16T06:15:43;19.30;58.70
58993;DHT22;44782;0.000;0.000;2024-02-16T06:18:00;19.30;59.00
58993;DHT22;44782;0.000;0.000;2024-02-16T06:20:19;19.30;59.40
58993;DHT22;44782;0.000;0.000;2024-02-16T06:22:36;19.30;59.40
58993;DHT22;44782;0.000;0.000;2024-02-16T06:24:52;19.30;59.80
58993;DHT22;44782;0.000;0.000;2024-02-16T06:27:07;19.30;60.00
58993;DHT22;44782;0.000;0.000;2024-02-16T06:29:23;19.30;60.10
58993;DHT22;44782;0.000;0.000;2024-02-16T06:31:39;19.40;60.00
58993;DHT22;44782;0.000;0.000;2024-02-16T06:33:55;19.40;60.10
58993;DHT22;44782;0.000;0.000;2024-02-16T06:36:11;19.40;60.40
58993;DHT22;44782;0.000;0.000;2024-02-16T06:38:27;19.40;60.30
58993;DHT22;44782;0.000;0.000;2024-02-16T06:40:42;19.40;60.10
58993;DHT22;44782;0.000;0.000;2024-02-16T06:42:58;19.30;60.50
58993;DHT22;44782;0.000;0.000;2024-02-16T06:45:14;19.40;60.40
58993;DHT22;44782;0.000;0.000;2024-02-16T06:47:30;19.40;60.70
58993;DHT22;44782;0.000;0.000;2024-02-16T06:49:46;19.40;60.50
58993;DHT22;44782;0.000;0.000;2024-02-16T06:52:02;19.40;60.90
58993;DHT22;44782;0.000;0.000;2024-02-16T06:54:17;19.40;60.80
58993;DHT22;44782;0.000;0.000;2024-02-16T06:56:33;19.40;60.70
58993;DHT22;44782;0.000;0.000;2024-02-16T06:58:49;19.40;60.60
58993;DHT22;44782;0.000;0.000;2024-02-16T07:01:05;19.30;60.80
58993;DHT22;44782;0.000;0.000;2024-02-16T07:03:21;19.40;60.80
58993;DHT22;44782;0.000;0.000;2024-02-16T07:05:36;19.30;60.80
58993;DHT22;44782;0.000;0.000;2024-02-16T07:07:52;19.40;60.90
58993;DHT22;44782;0.000;0.000;2024-02-16T07:10:08;19.30;61.10
58993;DHT22;44782;0.000;0.000;2024-02-16T07:12:28;19.30;60.70
58993;DHT22;44782;0.000;0.000;2024-02-16T07:14:44;19.30;60.80
58993;DHT22;44782;0.000;0.000;2024-02-16T07:17:02;19.40;60.80
58993;DHT22;44782;0.000;0.000;2024-02-16T07:19:18;19.30;60.80
58993;DHT22;44782;0.000;0.000;2024-02-16T07:21:33;19.30;60.50
58993;DHT22;44782;0.000;0.000;2024-02-16T07:23:49;19.30;60.50
58993;DHT22;44782;0.000;0.000;2024-02-16T07:26:05;19.30;60.50
58993;DHT22;44782;0.000;0.000;2024-02-16T07:28:21;19.30;60.50
58993;DHT22;44782;0.000;0.000;2024-02-16T07:30:37;19.30;60.40
58993;DHT22;44782;0.000;0.000;2024-02-16T07:32:55;19.30;60.40
58993;DHT22;44782;0.000;0.000;2024-02-16T07:35:11;19.30;60.40
58993;DHT22;44782;0.000;0.000;2024-02-16T07:37:28;19.30;60.40
58993;DHT22;44782;0.000;0.000;2024-02-16T07:39:44;19.30;60.30
58993;DHT22;44782;0.000;0.000;2024-02-16T07:42:00;19.20;60.20
58993;DHT22;44782;0.000;0.000;2024-02-16T07:44:15;19.20;60.10
58993;DHT22;44782;0.000;0.000;2024-02-16T07:46:31;19.20;60.20
58993;DHT22;44782;0.000;0.000;2024-02-16T07:48:47;19.20;60.10
58993;DHT22;44782;0.000;0.000;2024-02-16T07:51:02;19.20;60.10
58993;DHT22;44782;0.000;0.000;2024-02-16T07:53:19;19.20;60.20
58993;DHT22;44782;0.000;0.000;2024-02-16T07:55:34;19.20;60.10
58993;DHT22;44782;0.000;0.000;2024-02-16T07:57:51;19.20;60.10
58993;DHT22;44782;0.000;0.000;2024-02-16T08:00:07;19.20;60.10
58993;DHT22;44782;0.000;0.000;2024-02-16T08:02:26;19.20;60.10
58993;DHT22;44782;0.000;0.000;2024-02-16T08:04:42;19.20;60.00
58993;DHT22;44782;0.000;0.000;2024-02-16T08:06:57;19.10;60.00
58993;DHT22;44782;0.000;0.000;2024-02-16T08:09:13;19.20;60.20
58993;DHT22;44782;0.000;0.000;2024-02-16T08:11:29;19.10;60.00
58993;DHT22;44782;0.000;0.000;2024-02-16T08:13:45;19.20;60.00
58993;DHT22;44782;0.000;0.000;2024-02-16T08:16:01;19.10;60.00
58993;DHT22;44782;0.000;0.000;2024-02-16T08:18:22;19.10;60.00
58993;DHT22;44782;0.000;0.000;2024-02-16T08:20:37;19.10;59.90
58993;DHT22;44782;0.000;0.000;2024-02-16T08:22:54;19.10;59.90
58993;DHT22;44782;0.000;0.000;2024-02-16T08:25:10;19.10;59.90
58993;DHT22;44782;0.000;0.000;2024-02-16T08:27:26;19.10;59.90
58993;DHT22;44782;0.000;0.000;2024-02-16T08:29:42;19.10;59.90
58993;DHT22;44782;0.000;0.000;2024-02-16T08:31:58;19.10;59.80
58993;DHT22;44782;0.000;0.000;2024-02-16T08:34:14;19.10;59.80
58993;DHT22;44782;0.000;0.000;2024-02-16T08:36:30;19.10;59.80
58993;DHT22;44782;0.000;0.000;2024-02-16T08:38:46;19.10;59.80
58993;DHT22;44782;0.000;0.000;2024-02-16T08:41:02;19.10;59.80
58993;DHT22;44782;0.000;0.000;2024-02-16T08:43:22;19.10;59.80
58993;DHT22;44782;0.000;0.000;2024-02-16T08:45:37;19.10;59.80
58993;DHT22;44782;0.000;0.000;2024-02-16T08:47:53;19.10;59.80
58993;DHT22;44782;0.000;0.000;2024-02-16T08:50:10;19.10;59.80
58993;DHT22;44782;0.000;0.000;2024-02-16T08:52:27;19.10;59.80
58993;DHT22;44782;0.000;0.000;2024-02-16T08:54:43;19.10;59.70
58993;DHT22;44782;0.000;0.000;2024-02-16T08:56:59;19.00;59.80
58993;DHT22;44782;0.000;0.000;2024-02-16T08:59:15;19.00;59.90
58993;DHT22;44782;0.000;0.000;2024-02-16T09:01:34;19.00;59.80
58993;DHT22;44782;0.000;0.000;2024-02-16T09:03:50;19.00;59.80
58993;DHT22;44782;0.000;0.000;2024-02-16T09:06:06;19.00;59.80
58993;DHT22;44782;0.000;0.000;2024-02-16T09:08:22;19.00;59.80
58993;DHT22;44782;0.000;0.000;2024-02-16T09:10:38;19.00;59.70
58993;DHT22;44782;0.000;0.000;2024-02-16T09:12:54;19.00;59.70
58993;DHT22;44782;0.000;0.000;2024-02-16T09:15:10;19.00;59.80
58993;DHT22;44782;0.000;0.000;2024-02-16T09:17:27;19.00;59.80
58993;DHT22;44782;0.000;0.000;2024-02-16T09:19:43;19.00;59.70
58993;DHT22;44782;0.000;0.000;2024-02-16T09:22:00;19.00;59.80
58993;DHT22;44782;0.000;0.000;2024-02-16T09:24:18;19.00;59.80
58993;DHT22;44782;0.000;0.000;2024-02-16T09:26:34;19.00;59.80
58993;DHT22;44782;0.000;0.000;2024-02-16T09:28:50;19.00;60.50
58993;DHT22;44782;0.000;0.000;2024-02-16T09:31:05;19.00;59.70
58993;DHT22;44782;0.000;0.000;2024-02-16T09:33:23;19.00;59.70
58993;DHT22;44782;0.000;0.000;2024-02-16T09:35:43;19.00;59.70
58993;DHT22;44782;0.000;0.000;2024-02-16T09:37:58;18.90;59.70
58993;DHT22;44782;0.000;0.000;2024-02-16T09:40:14;18.90;59.70
58993;DHT22;44782;0.000;0.000;2024-02-16T09:42:31;18.90;59.60
58993;DHT22;44782;0.000;0.000;2024-02-16T09:44:48;18.90;59.70
58993;DHT22;44782;0.000;0.000;2024-02-16T09:47:04;18.90;59.70
58993;DHT22;44782;0.000;0.000;2024-02-16T09:49:20;18.90;59.60
58993;DHT22;44782;0.000;0.000;2024-02-16T09:51:37;18.90;59.70
58993;DHT22;44782;0.000;0.000;2024-02-16T09:53:53;18.90;59.70
58993;DHT22;44782;0.000;0.000;2024-02-16T09:56:10;18.90;59.80
58993;DHT22;44782;0.000;0.000;2024-02-16T09:58:26;18.90;59.70
58993;DHT22;44782;0.000;0.000;2024-02-16T10:00:41;18.90;59.70
58993;DHT22;44782;0.000;0.000;2024-02-16T10:02:57;18.90;59.70
58993;DHT22;44782;0.000;0.000;2024-02-16T10:05:14;18.90;59.70
58993;DHT22;44782;0.000;0.000;2024-02-16T10:07:31;18.90;59.70
58993;DHT22;44782;0.000;0.000;2024-02-16T10:09:47;18.90;59.70
58993;DHT22;44782;0.000;0.000;2024-02-16T10:12:03;18.90;59.60
58993;DHT22;44782;0.000;0.000;2024-02-16T10:14:21;18.90;59.70
58993;DHT22;44782;0.000;0.000;2024-02-16T10:16:37;18.80;59.60
58993;DHT22;44782;0.000;0.000;2024-02-16T10:19:17;18.90;59.70
58993;DHT22;44782;0.000;0.000;2024-02-16T10:21:30;18.90;59.70
58993;DHT22;44782;0.000;0.000;2024-02-16T10:24:08;18.80;59.70
58993;DHT22;44782;0.000;0.000;2024-02-16T10:26:23;18.90;59.50
58993;DHT22;44782;0.000;0.000;2024-02-16T10:28:39;18.80;59.70
58993;DHT22;44782;0.000;0.000;2024-02-16T10:30:58;18.80;59.60
58993;DHT22;44782;0.000;0.000;2024-02-16T10:33:18;18.80;59.60
58993;DHT22;44782;0.000;0.000;2024-02-16T10:35:35;18.80;59.60
58993;DHT22;44782;0.000;0.000;2024-02-16T10:37:51;18.80;59.60
58993;DHT22;44782;0.000;0.000;2024-02-16T10:40:08;18.80;59.60
58993;DHT22;44782;0.000;0.000;2024-02-16T10:42:29;18.80;59.60
58993;DHT22;44782;0.000;0.000;2024-02-16T10:44:46;18.80;59.60
58993;DHT22;44782;0.000;0.000;2024-02-16T10:47:03;18.80;59.60
58993;DHT22;44782;0.000;0.000;2024-02-16T10:49:20;18.80;59.60
58993;DHT22;44782;0.000;0.000;2024-02-16T10:51:39;18.80;59.60
58993;DHT22;44782;0.000;0.000;2024-02-16T10:53:56;18.80;59.60
58993;DHT22;44782;0.000;0.000;2024-02-16T10:56:13;18.80;59.50
58993;DHT22;44782;0.000;0.000;2024-02-16T10:58:29;18.80;59.60
58993;DHT22;44782;0.000;0.000;2024-02-16T11:00:52;18.80;59.60
58993;DHT22;44782;0.000;0.000;2024-02-16T11:03:08;18.80;59.50
58993;DHT22;44782;0.000;0.000;2024-02-16T11:05:34;18.80;59.60
58993;DHT22;44782;0.000;0.000;2024-02-16T11:08:05;18.80;59.40
58993;DHT22;44782;0.000;0.000;2024-02-16T11:10:26;18.80;59.40
58993;DHT22;44782;0.000;0.000;2024-02-16T11:12:44;18.80;59.60
58993;DHT22;44782;0.000;0.000;2024-02-16T11:15:08;18.70;59.50
58993;DHT22;44782;0.000;0.000;2024-02-16T11:17:23;18.70;59.40
58993;DHT22;44782;0.000;0.000;2024-02-16T11:19:41;18.70;59.60
58993;DHT22;44782;0.000;0.000;2024-02-16T11:21:58;18.70;59.50
58993;DHT22;44782;0.000;0.000;2024-02-16T11:24:14;18.70;59.50
58993;DHT22;44782;0.000;0.000;2024-02-16T11:26:30;18.70;59.50
58993;DHT22;44782;0.000;0.000;2024-02-16T11:28:45;18.70;59.50
58993;DHT22;44782;0.000;0.000;2024-02-16T11:31:01;18.70;59.50
58993;DHT22;44782;0.000;0.000;2024-02-16T11:33:18;18.70;59.50
58993;DHT22;44782;0.000;0.000;2024-02-16T11:35:33;18.70;59.50
58993;DHT22;44782;0.000;0.000;2024-02-16T11:37:49;18.70;59.50
58993;DHT22;44782;0.000;0.000;2024-02-16T11:40:07;18.70;59.50
58993;DHT22;44782;0.000;0.000;2024-02-16T11:42:24;18.70;59.40
58993;DHT22;44782;0.000;0.000;2024-02-16T11:44:49;18.70;59.50
58993;DHT22;44782;0.000;0.000;2024-02-16T11:47:07;18.70;60.10
58993;DHT22;44782;0.000;0.000;2024-02-16T11:49:30;18.70;59.40
58993;DHT22;44782;0.000;0.000;2024-02-16T11:51:47;18.70;59.30
58993;DHT22;44782;0.000;0.000;2024-02-16T11:54:02;18.70;59.40
58993;DHT22;44782;0.000;0.000;2024-02-16T11:56:23;18.70;59.40
58993;DHT22;44782;0.000;0.000;2024-02-16T11:58:40;18.70;59.30
58993;DHT22;44782;0.000;0.000;2024-02-16T12:00:55;18.70;59.40
58993;DHT22;44782;0.000;0.000;2024-02-16T12:03:24;18.70;59.40
58993;DHT22;44782;0.000;0.000;2024-02-16T12:05:52;18.70;59.30
58993;DHT22;44782;0.000;0.000;2024-02-16T12:08:08;18.70;59.20
58993;DHT22;44782;0.000;0.000;2024-02-16T12:10:25;18.70;59.40
58993;DHT22;44782;0.000;0.000;2024-02-16T12:12:40;18.70;59.40
58993;DHT22;44782;0.000;0.000;2024-02-16T12:14:58;18.70;59.40
58993;DHT22;44782;0.000;0.000;2024-02-16T12:17:15;18.70;59.30
58993;DHT22;44782;0.000;0.000;2024-02-16T12:19:30;18.70;59.30
58993;DHT22;44782;0.000;0.000;2024-02-16T12:21:53;18.70;59.30
58993;DHT22;44782;0.000;0.000;2024-02-16T12:24:09;18.70;59.20
58993;DHT22;44782;0.000;0.000;2024-02-16T12:26:25;18.60;59.30
58993;DHT22;44782;0.000;0.000;2024-02-16T12:28:41;18.60;59.30
58993;DHT22;44782;0.000;0.000;2024-02-16T12:30:58;18.60;59.30
58993;DHT22;44782;0.000;0.000;2024-02-16T12:33:14;18.60;59.30
58993;DHT22;44782;0.000;0.000;2024-02-16T12:35:30;18.60;59.20
58993;DHT22;44782;0.000;0.000;2024-02-16T12:37:46;18.60;59.20
58993;DHT22;44782;0.000;0.000;2024-02-16T12:40:03;18.60;59.20
58993;DHT22;44782;0.000;0.000;2024-02-16T12:42:21;18.60;59.20
58993;DHT22;44782;0.000;0.000;2024-02-16T12:44:37;18.60;59.20
58993;DHT22;44782;0.000;0.000;2024-02-16T12:46:53;18.60;59.20
58993;DHT22;44782;0.000;0.000;2024-02-16T12:49:09;18.60;59.10
58993;DHT22;44782;0.000;0.000;2024-02-16T12:51:24;18.60;59.20
58993;DHT22;44782;0.000;0.000;2024-02-16T12:53:40;18.60;59.10
58993;DHT22;44782;0.000;0.000;2024-02-16T12:55:56;18.60;59.10
58993;DHT22;44782;0.000;0.000;2024-02-16T12:58:12;18.60;59.10
58993;DHT22;44782;0.000;0.000;2024-02-16T13:00:28;18.60;59.10
58993;DHT22;44782;0.000;0.000;2024-02-16T13:02:44;18.60;59.80
58993;DHT22;44782;0.000;0.000;2024-02-16T13:05:00;18.60;59.10
58993;DHT22;44782;0.000;0.000;2024-02-16T13:07:19;18.60;59.10
58993;DHT22;44782;0.000;0.000;2024-02-16T13:09:35;18.60;59.10
58993;DHT22;44782;0.000;0.000;2024-02-16T13:11:50;18.60;59.10
58993;DHT22;44782;0.000;0.000;2024-02-16T13:14:09;18.60;59.10
58993;DHT22;44782;0.000;0.000;2024-02-16T13:16:28;18.60;59.10
58993;DHT22;44782;0.000;0.000;2024-02-16T13:18:44;18.60;59.00
58993;DHT22;44782;0.000;0.000;2024-02-16T13:20:59;18.60;59.10
58993;DHT22;44782;0.000;0.000;2024-02-16T13:23:15;18.60;59.10
58993;DHT22;44782;0.000;0.000;2024-02-16T13:25:31;18.60;59.00
58993;DHT22;44782;0.000;0.000;2024-02-16T13:27:47;18.60;59.00
58993;DHT22;44782;0.000;0.000;2024-02-16T13:30:03;18.60;59.00
58993;DHT22;44782;0.000;0.000;2024-02-16T13:32:22;18.60;59.00
58993;DHT22;44782;0.000;0.000;2024-02-16T13:34:38;18.60;59.00
58993;DHT22;44782;0.000;0.000;2024-02-16T13:36:55;18.60;59.00
58993;DHT22;44782;0.000;0.000;2024-02-16T13:39:11;18.60;58.90
58993;DHT22;44782;0.000;0.000;2024-02-16T13:41:33;18.60;59.00
58993;DHT22;44782;0.000;0.000;2024-02-16T13:43:49;18.60;58.90
58993;DHT22;44782;0.000;0.000;2024-02-16T13:46:07;18.50;58.90
58993;DHT22;44782;0.000;0.000;2024-02-16T13:48:22;18.60;58.90
58993;DHT22;44782;0.000;0.000;2024-02-16T13:50:38;18.50;58.90
58993;DHT22;44782;0.000;0.000;2024-02-16T13:52:54;18.50;58.90
58993;DHT22;44782;0.000;0.000;2024-02-16T13:55:11;18.50;58.90
58993;DHT22;44782;0.000;0.000;2024-02-16T13:57:29;18.50;58.90
58993;DHT22;44782;0.000;0.000;2024-02-16T13:59:46;18.50;58.90
58993;DHT22;44782;0.000;0.000;2024-02-16T14:02:02;18.50;58.80
58993;DHT22;44782;0.000;0.000;2024-02-16T14:04:17;18.50;58.80
58993;DHT22;44782;0.000;0.000;2024-02-16T14:06:34;18.50;58.80
58993;DHT22;44782;0.000;0.000;2024-02-16T14:08:50;18.50;58.80
58993;DHT22;44782;0.000;0.000;2024-02-16T14:11:08;18.50;58.80
58993;DHT22;44782;0.000;0.000;2024-02-16T14:13:24;18.50;58.80
58993;DHT22;44782;0.000;0.000;2024-02-16T14:15:44;18.50;58.80
58993;DHT22;44782;0.000;0.000;2024-02-16T14:18:00;18.50;58.60
58993;DHT22;44782;0.000;0.000;2024-02-16T14:20:15;18.50;58.70
58993;DHT22;44782;0.000;0.000;2024-02-16T14:22:32;18.50;58.70
58993;DHT22;44782;0.000;0.000;2024-02-16T14:24:47;18.50;58.70
58993;DHT22;44782;0.000;0.000;2024-02-16T14:27:03;18.50;58.70
58993;DHT22;44782;0.000;0.000;2024-02-16T14:29:20;18.50;58.70
58993;DHT22;44782;0.000;0.000;2024-02-16T14:31:36;18.50;58.60
58993;DHT22;44782;0.000;0.000;2024-02-16T14:33:52;18.50;58.60
58993;DHT22;44782;0.000;0.000;2024-02-16T14:36:07;18.50;58.60
58993;DHT22;44782;0.000;0.000;2024-02-16T14:38:25;18.50;58.60